Time;durP1;ratioP1;P1;durP2;ratioP2;P2;SDS_P1;SDS_P2;PMS_P1;PMS_P2;Temp;Humidity;BMP_temperature;BMP_pressure;BME280_temperature;BME280_humidity;BME280_pressure;Samples;Min_cycle;Max_cycle;Signal;HPM_P1;HPM_P2
2022/03/19 00:00:51;;;;;;;0.40;0.40;;;;;;;;;;5053309;28;20503;-62
2022/03/19 00:03:22;;;;;;;0.20;0.20;;;;;;;;;;5036185;28;20040;-65
2022/03/19 00:05:47;;;;;;;0.20;0.20;;;;;;;;;;5065636;28;20387;-61
2022/03/19 00:08:16;;;;;;;0.10;0.10;;;;;;;;;;5089632;28;20039;-61
2022/03/19 00:10:41;;;;;;;0.20;0.20;;;;;;;;;;5054584;28;20032;-61
2022/03/19 00:13:07;;;;;;;0.20;0.20;;;;;;;;;;5088901;28;20080;-62
2022/03/19 00:15:34;;;;;;;0.20;0.20;;;;;;;;;;5053262;28;20036;-61
2022/03/19 00:17:59;;;;;;;0.20;0.20;;;;;;;;;;5054615;28;20493;-62
2022/03/19 00:20:25;;;;;;;0.20;0.20;;;;;;;;;;5086004;28;20063;-61
2022/03/19 00:22:51;;;;;;;0.20;0.20;;;;;;;;;;5092874;28;20379;-61
2022/03/19 00:25:16;;;;;;;0.10;0.10;;;;;;;;;;5074668;28;20399;-61
2022/03/19 00:27:42;;;;;;;0.95;0.95;;;;;;;;;;5092711;28;20030;-61
2022/03/19 00:30:08;;;;;;;0.22;0.22;;;;;;;;;;5092233;28;20028;-62
2022/03/19 00:32:34;;;;;;;0.30;0.30;;;;;;;;;;5092179;28;20024;-61
2022/03/19 00:34:59;;;;;;;0.30;0.30;;;;;;;;;;5065257;28;20039;-61
2022/03/19 00:37:25;;;;;;;0.20;0.20;;;;;;;;;;5073660;28;20129;-61
2022/03/19 00:39:51;;;;;;;0.10;0.10;;;;;;;;;;5079483;28;20039;-61
2022/03/19 00:42:16;;;;;;;0.20;0.20;;;;;;;;;;5075102;28;20028;-61
2022/03/19 00:44:43;;;;;;;0.20;0.20;;;;;;;;;;5072237;28;20115;-61
2022/03/19 00:47:09;;;;;;;0.20;0.20;;;;;;;;;;5037538;28;20045;-61
2022/03/19 00:49:34;;;;;;;0.20;0.20;;;;;;;;;;5037613;28;20110;-61
2022/03/19 00:52:00;;;;;;;0.10;0.10;;;;;;;;;;5054042;28;20101;-61
2022/03/19 00:54:25;;;;;;;0.20;0.20;;;;;;;;;;5073629;28;20131;-62
2022/03/19 00:56:50;;;;;;;0.20;0.20;;;;;;;;;;5092319;28;20040;-62
2022/03/19 00:59:16;;;;;;;0.20;0.20;;;;;;;;;;5092474;28;20070;-61
2022/03/19 01:01:42;;;;;;;0.20;0.20;;;;;;;;;;5063622;28;20042;-61
2022/03/19 01:04:07;;;;;;;0.20;0.20;;;;;;;;;;5071154;28;20032;-62
2022/03/19 01:06:32;;;;;;;0.10;0.10;;;;;;;;;;5071750;28;20085;-61
2022/03/19 01:08:58;;;;;;;0.17;0.17;;;;;;;;;;5071616;28;20048;-61
2022/03/19 01:11:23;;;;;;;0.30;0.30;;;;;;;;;;5071911;28;20037;-61
2022/03/19 01:13:50;;;;;;;0.20;0.20;;;;;;;;;;5071572;28;20044;-62
2022/03/19 01:16:18;;;;;;;0.15;0.15;;;;;;;;;;5070785;28;20036;-61
2022/03/19 01:18:44;;;;;;;0.20;0.20;;;;;;;;;;5057018;28;20043;-61
2022/03/19 01:21:10;;;;;;;0.20;0.20;;;;;;;;;;5057402;28;20032;-61
2022/03/19 01:23:35;;;;;;;0.20;0.20;;;;;;;;;;5074121;28;20032;-61
2022/03/19 01:26:01;;;;;;;1.05;1.05;;;;;;;;;;5095198;28;20028;-60
2022/03/19 01:28:26;;;;;;;0.20;0.20;;;;;;;;;;5095610;28;20043;-61
2022/03/19 01:30:51;;;;;;;0.25;0.25;;;;;;;;;;5095877;28;20032;-61
2022/03/19 01:33:17;;;;;;;0.20;0.20;;;;;;;;;;5094989;28;20035;-61
2022/03/19 01:35:43;;;;;;;0.22;0.22;;;;;;;;;;5060144;28;20031;-60
2022/03/19 01:38:08;;;;;;;0.30;0.30;;;;;;;;;;5095035;28;20066;-60
2022/03/19 01:40:34;;;;;;;0.20;0.20;;;;;;;;;;5094858;28;20485;-61
2022/03/19 01:43:00;;;;;;;0.20;0.20;;;;;;;;;;5095068;28;20032;-61
2022/03/19 01:45:26;;;;;;;0.20;0.20;;;;;;;;;;5076689;28;20081;-61
2022/03/19 01:47:51;;;;;;;0.40;0.40;;;;;;;;;;5094721;28;20479;-62
2022/03/19 01:50:18;;;;;;;0.25;0.25;;;;;;;;;;5060455;28;20036;-62
2022/03/19 01:52:44;;;;;;;0.20;0.20;;;;;;;;;;5094731;28;20032;-63
2022/03/19 01:55:10;;;;;;;0.28;0.28;;;;;;;;;;5095267;28;20020;-61
2022/03/19 01:57:38;;;;;;;0.17;0.17;;;;;;;;;;5076429;28;20032;-61
2022/03/19 02:00:06;;;;;;;0.15;0.15;;;;;;;;;;5077093;28;20032;-61
2022/03/19 02:02:37;;;;;;;0.20;0.20;;;;;;;;;;5077954;28;20069;-61
2022/03/19 02:05:03;;;;;;;0.20;0.20;;;;;;;;;;5060546;28;20043;-61
2022/03/19 02:07:31;;;;;;;0.20;0.20;;;;;;;;;;5095167;28;20024;-61
2022/03/19 02:09:57;;;;;;;3.25;3.15;;;;;;;;;;5095264;28;20028;-61
2022/03/19 02:12:22;;;;;;;0.20;0.20;;;;;;;;;;5095169;28;20043;-61
2022/03/19 02:14:48;;;;;;;0.20;0.20;;;;;;;;;;5095202;28;20471;-61
2022/03/19 02:17:14;;;;;;;0.20;0.20;;;;;;;;;;5094902;28;20113;-63
2022/03/19 02:19:48;;;;;;;0.13;0.13;;;;;;;;;;5060401;28;20478;-61
2022/03/19 02:22:13;;;;;;;0.28;0.28;;;;;;;;;;5077040;28;20028;-61
2022/03/19 02:27:22;;;;;;;0.10;0.10;;;;;;;;;;5095122;28;20024;-61
2022/03/19 02:29:48;;;;;;;0.20;0.20;;;;;;;;;;5094813;28;20032;-61
2022/03/19 02:32:14;;;;;;;0.20;0.20;;;;;;;;;;5059969;28;20114;-63
2022/03/19 02:34:39;;;;;;;0.28;0.28;;;;;;;;;;5094796;28;20047;-61
2022/03/19 02:37:04;;;;;;;0.20;0.20;;;;;;;;;;5076603;28;20528;-62
2022/03/19 02:39:33;;;;;;;0.20;0.20;;;;;;;;;;5094677;28;20521;-62
2022/03/19 02:42:03;;;;;;;2.35;2.25;;;;;;;;;;5076545;28;20581;-61
2022/03/19 02:44:29;;;;;;;0.20;0.20;;;;;;;;;;5059750;28;20063;-62
2022/03/19 02:46:56;;;;;;;0.20;0.20;;;;;;;;;;5076632;28;20056;-62
2022/03/19 02:49:22;;;;;;;0.13;0.13;;;;;;;;;;5094647;28;20444;-61
2022/03/19 02:51:48;;;;;;;0.45;0.45;;;;;;;;;;5094547;28;20074;-61
2022/03/19 02:54:15;;;;;;;0.20;0.20;;;;;;;;;;5059786;28;20119;-63
2022/03/19 02:56:42;;;;;;;1.40;1.40;;;;;;;;;;5094587;28;20035;-61
2022/03/19 02:59:08;;;;;;;0.73;0.73;;;;;;;;;;5094334;28;20028;-62
2022/03/19 03:01:34;;;;;;;0.20;0.20;;;;;;;;;;5059744;28;20043;-62
2022/03/19 03:04:00;;;;;;;0.13;0.13;;;;;;;;;;5076280;28;20038;-61
2022/03/19 03:06:28;;;;;;;0.17;0.17;;;;;;;;;;5059739;28;20040;-61
2022/03/19 03:08:54;;;;;;;0.20;0.20;;;;;;;;;;5059478;28;20037;-61
2022/03/19 03:11:19;;;;;;;0.20;0.20;;;;;;;;;;5076362;28;20085;-61
2022/03/19 03:13:44;;;;;;;0.20;0.20;;;;;;;;;;5094100;28;20528;-62
2022/03/19 03:16:10;;;;;;;0.25;0.25;;;;;;;;;;5094288;28;20047;-63
2022/03/19 03:18:38;;;;;;;0.30;0.30;;;;;;;;;;5059397;28;20043;-61
2022/03/19 03:21:03;;;;;;;0.10;0.10;;;;;;;;;;5076064;28;20116;-61
2022/03/19 03:23:29;;;;;;;0.20;0.20;;;;;;;;;;5075996;28;20086;-61
2022/03/19 03:25:54;;;;;;;0.30;0.30;;;;;;;;;;5094058;28;20097;-61
2022/03/19 03:28:20;;;;;;;0.10;0.10;;;;;;;;;;5093862;28;20031;-61
2022/03/19 03:30:45;;;;;;;0.45;0.45;;;;;;;;;;5073125;28;20465;-62
2022/03/19 03:33:11;;;;;;;0.20;0.20;;;;;;;;;;5053609;28;20380;-61
2022/03/19 03:35:36;;;;;;;0.20;0.20;;;;;;;;;;5053665;28;20083;-61
2022/03/19 03:38:02;;;;;;;0.20;0.20;;;;;;;;;;5053430;28;20033;-61
2022/03/19 03:40:27;;;;;;;0.20;0.20;;;;;;;;;;5035728;28;20043;-62
2022/03/19 03:42:54;;;;;;;0.25;0.25;;;;;;;;;;5053352;28;20461;-62
2022/03/19 03:45:20;;;;;;;0.28;0.28;;;;;;;;;;5035733;28;20056;-62
2022/03/19 03:47:46;;;;;;;0.20;0.20;;;;;;;;;;5018497;28;20036;-62
2022/03/19 03:50:11;;;;;;;0.20;0.20;;;;;;;;;;5053783;28;20495;-62
2022/03/19 03:52:37;;;;;;;0.20;0.20;;;;;;;;;;5053534;28;20065;-61
2022/03/19 03:55:06;;;;;;;0.60;0.60;;;;;;;;;;5019081;28;20438;-61
2022/03/19 03:57:34;;;;;;;0.15;0.15;;;;;;;;;;5018802;28;20455;-62
2022/03/19 04:00:01;;;;;;;0.28;0.28;;;;;;;;;;5053378;28;20036;-61
2022/03/19 04:02:26;;;;;;;0.15;0.15;;;;;;;;;;5035815;28;20442;-61
2022/03/19 04:04:52;;;;;;;0.20;0.20;;;;;;;;;;5069332;28;20033;-61
2022/03/19 04:07:17;;;;;;;1.65;1.13;;;;;;;;;;5069235;28;20040;-63
2022/03/19 04:09:43;;;;;;;0.20;0.20;;;;;;;;;;5069623;28;20543;-61
2022/03/19 04:12:09;;;;;;;0.30;0.30;;;;;;;;;;5068887;28;20044;-61
2022/03/19 04:14:35;;;;;;;0.20;0.20;;;;;;;;;;5034795;28;20499;-62
2022/03/19 04:17:02;;;;;;;0.30;0.30;;;;;;;;;;5069199;28;20109;-62
2022/03/19 04:19:27;;;;;;;0.20;0.20;;;;;;;;;;5051414;28;20391;-61
2022/03/19 04:21:53;;;;;;;0.20;0.20;;;;;;;;;;5051436;28;20040;-61
2022/03/19 04:24:18;;;;;;;0.15;0.15;;;;;;;;;;5068684;28;20040;-61
2022/03/19 04:26:44;;;;;;;0.20;0.20;;;;;;;;;;5068885;28;20037;-62
2022/03/19 04:29:09;;;;;;;28.95;25.85;;;;;;;;;;5034463;28;20467;-63
2022/03/19 04:31:34;;;;;;;0.30;0.30;;;;;;;;;;5069096;28;20127;-63
2022/03/19 04:34:00;;;;;;;0.20;0.20;;;;;;;;;;5069094;28;20027;-61
2022/03/19 04:36:32;;;;;;;0.20;0.20;;;;;;;;;;5068371;28;20094;-65
2022/03/19 04:39:02;;;;;;;0.20;0.20;;;;;;;;;;5034648;28;20086;-66
2022/03/19 04:41:28;;;;;;;0.30;0.30;;;;;;;;;;5068787;28;20059;-63
2022/03/19 04:43:54;;;;;;;0.20;0.20;;;;;;;;;;5032626;28;20059;-63
2022/03/19 04:46:20;;;;;;;0.20;0.20;;;;;;;;;;5068568;28;20365;-61
2022/03/19 04:48:45;;;;;;;0.20;0.20;;;;;;;;;;5068608;28;20357;-63
2022/03/19 04:51:12;;;;;;;0.20;0.20;;;;;;;;;;5034193;28;20089;-61
2022/03/19 04:53:38;;;;;;;0.20;0.20;;;;;;;;;;5034331;28;20387;-61
2022/03/19 04:56:06;;;;;;;0.20;0.20;;;;;;;;;;5050019;28;20036;-61
2022/03/19 04:58:32;;;;;;;0.20;0.20;;;;;;;;;;5034190;28;20032;-62
2022/03/19 05:00:57;;;;;;;0.20;0.20;;;;;;;;;;5033894;28;20032;-61
2022/03/19 05:03:23;;;;;;;0.30;0.30;;;;;;;;;;5068365;28;20131;-62
2022/03/19 05:05:48;;;;;;;0.30;0.30;;;;;;;;;;5068300;28;20036;-61
2022/03/19 05:08:14;;;;;;;0.35;0.35;;;;;;;;;;5068240;28;20035;-63
2022/03/19 05:13:24;;;;;;;0.20;0.20;;;;;;;;;;5050844;28;20120;-62
2022/03/19 05:15:49;;;;;;;0.20;0.20;;;;;;;;;;5050537;28;20147;-63
2022/03/19 05:18:15;;;;;;;0.20;0.20;;;;;;;;;;5068312;28;20062;-63
2022/03/19 05:20:40;;;;;;;0.20;0.20;;;;;;;;;;5068069;28;20037;-65
2022/03/19 05:23:07;;;;;;;0.20;0.20;;;;;;;;;;5068176;28;20733;-63
2022/03/19 05:25:33;;;;;;;1.52;1.42;;;;;;;;;;5033406;28;20032;-65
2022/03/19 05:27:59;;;;;;;0.70;0.70;;;;;;;;;;5050474;28;20081;-62
2022/03/19 05:30:24;;;;;;;0.20;0.20;;;;;;;;;;5067862;28;20032;-62
2022/03/19 05:32:50;;;;;;;0.20;0.20;;;;;;;;;;5068128;28;20021;-62
2022/03/19 05:35:16;;;;;;;0.20;0.20;;;;;;;;;;5068244;28;20064;-62
2022/03/19 05:37:42;;;;;;;0.20;0.20;;;;;;;;;;5050122;28;20029;-64
2022/03/19 05:40:08;;;;;;;0.20;0.20;;;;;;;;;;5067819;28;20037;-62
2022/03/19 05:42:34;;;;;;;0.20;0.20;;;;;;;;;;5033717;28;20082;-62
2022/03/19 05:45:00;;;;;;;0.10;0.10;;;;;;;;;;5050083;28;20028;-61
2022/03/19 05:47:27;;;;;;;0.20;0.20;;;;;;;;;;5050279;28;20040;-61
2022/03/19 05:49:53;;;;;;;0.20;0.20;;;;;;;;;;5067867;28;20043;-62
2022/03/19 05:52:18;;;;;;;0.20;0.20;;;;;;;;;;5067691;28;20095;-61
2022/03/19 05:54:44;;;;;;;0.10;0.10;;;;;;;;;;5067686;28;20037;-61
2022/03/19 05:57:09;;;;;;;0.10;0.10;;;;;;;;;;5067743;28;20043;-62
2022/03/19 05:59:35;;;;;;;0.10;0.10;;;;;;;;;;5068044;28;20025;-61
2022/03/19 06:02:00;;;;;;;0.20;0.20;;;;;;;;;;5033198;28;20043;-61
2022/03/19 06:04:26;;;;;;;0.20;0.20;;;;;;;;;;5067347;28;20384;-64
2022/03/19 06:06:51;;;;;;;0.20;0.20;;;;;;;;;;5050052;28;20032;-61
2022/03/19 06:09:18;;;;;;;0.20;0.20;;;;;;;;;;5067011;28;20082;-62
2022/03/19 06:11:45;;;;;;;0.20;0.20;;;;;;;;;;5035683;28;20032;-62
2022/03/19 06:14:11;;;;;;;0.20;0.20;;;;;;;;;;5036268;28;20395;-62
2022/03/19 06:16:37;;;;;;;0.20;0.20;;;;;;;;;;5070889;28;20033;-62
2022/03/19 06:19:02;;;;;;;0.20;0.20;;;;;;;;;;5071448;28;20578;-61
2022/03/19 06:21:28;;;;;;;0.20;0.20;;;;;;;;;;5070941;28;20556;-62
2022/03/19 06:23:53;;;;;;;0.10;0.10;;;;;;;;;;5070720;28;20048;-61
2022/03/19 06:26:20;;;;;;;0.22;0.22;;;;;;;;;;5035914;28;20028;-61
2022/03/19 06:28:45;;;;;;;0.20;0.20;;;;;;;;;;5036337;28;20174;-62
2022/03/19 06:31:11;;;;;;;0.20;0.20;;;;;;;;;;5052752;28;20119;-63
2022/03/19 06:33:40;;;;;;;1.23;1.23;;;;;;;;;;5071450;28;20039;-60
2022/03/19 06:38:50;;;;;;;0.20;0.20;;;;;;;;;;5053080;28;20063;-61
2022/03/19 06:41:16;;;;;;;0.22;0.22;;;;;;;;;;5070922;28;20109;-61
2022/03/19 06:43:43;;;;;;;4.85;2.85;;;;;;;;;;5052875;28;20071;-61
2022/03/19 06:46:09;;;;;;;0.20;0.20;;;;;;;;;;5052623;28;20032;-62
2022/03/19 06:48:35;;;;;;;0.20;0.20;;;;;;;;;;5052377;28;20495;-62
2022/03/19 06:51:00;;;;;;;6.10;5.80;;;;;;;;;;5070421;28;20036;-63
2022/03/19 06:53:26;;;;;;;0.20;0.20;;;;;;;;;;5035823;28;20036;-63
2022/03/19 06:55:51;;;;;;;0.30;0.30;;;;;;;;;;5070459;28;20039;-63
2022/03/19 06:58:19;;;;;;;0.30;0.30;;;;;;;;;;5052019;28;20041;-62
2022/03/19 07:00:44;;;;;;;0.20;0.20;;;;;;;;;;5035701;28;20078;-63
2022/03/19 07:03:10;;;;;;;0.30;0.30;;;;;;;;;;5070491;28;20028;-63
2022/03/19 07:05:35;;;;;;;0.22;0.22;;;;;;;;;;5070214;28;20028;-64
2022/03/19 07:08:01;;;;;;;0.20;0.20;;;;;;;;;;5070502;28;20036;-63
2022/03/19 07:10:27;;;;;;;0.30;0.30;;;;;;;;;;5035588;28;20041;-63
2022/03/19 07:12:53;;;;;;;0.20;0.20;;;;;;;;;;5070483;28;20494;-63
2022/03/19 07:15:20;;;;;;;0.30;0.30;;;;;;;;;;5052421;28;20036;-62
2022/03/19 07:17:46;;;;;;;0.20;0.20;;;;;;;;;;5069653;28;20551;-63
2022/03/19 07:20:14;;;;;;;0.20;0.20;;;;;;;;;;5034737;28;20032;-67
2022/03/19 07:22:59;;;;;;;0.10;0.10;;;;;;;;;;5065866;28;20107;-63
2022/03/19 07:25:35;;;;;;;0.22;0.22;;;;;;;;;;5050048;28;20035;-64
2022/03/19 07:28:06;;;;;;;0.20;0.20;;;;;;;;;;5061659;28;20078;-65
2022/03/19 07:30:32;;;;;;;0.10;0.10;;;;;;;;;;5051823;28;20036;-63
2022/03/19 07:32:58;;;;;;;2.58;2.47;;;;;;;;;;5051329;28;20086;-62
2022/03/19 07:35:24;;;;;;;0.10;0.10;;;;;;;;;;5035216;28;20028;-64
2022/03/19 07:37:49;;;;;;;0.20;0.20;;;;;;;;;;5070015;28;20098;-64
2022/03/19 07:41:45;;;;;;;0.10;0.10;;;;;;;;;;5051636;28;20032;-63
2022/03/19 07:43:03;;;;;;;0.20;0.20;;;;;;;;;;5069790;28;20062;-62
2022/03/19 07:45:30;;;;;;;0.10;0.10;;;;;;;;;;5035219;28;20032;-65
2022/03/19 07:47:56;;;;;;;0.20;0.20;;;;;;;;;;5052148;28;20071;-62
2022/03/19 07:50:21;;;;;;;0.20;0.20;;;;;;;;;;5069292;28;20060;-63
2022/03/19 07:52:47;;;;;;;0.10;0.10;;;;;;;;;;5069465;28;20043;-64
2022/03/19 07:55:14;;;;;;;0.20;0.20;;;;;;;;;;5037853;28;20035;-64
2022/03/19 07:57:41;;;;;;;0.20;0.20;;;;;;;;;;5046681;28;20411;-64
2022/03/19 08:00:07;;;;;;;0.10;0.10;;;;;;;;;;5052742;28;20028;-71
2022/03/19 08:02:41;;;;;;;0.17;0.17;;;;;;;;;;5067416;28;20028;-70
2022/03/19 08:05:07;;;;;;;0.10;0.10;;;;;;;;;;5086000;28;20046;-70
2022/03/19 08:07:34;;;;;;;0.10;0.10;;;;;;;;;;5070041;28;20020;-69
2022/03/19 08:10:01;;;;;;;0.10;0.10;;;;;;;;;;5089395;28;20150;-68
2022/03/19 08:12:32;;;;;;;0.20;0.20;;;;;;;;;;5089163;28;20078;-71
2022/03/19 08:14:59;;;;;;;0.10;0.10;;;;;;;;;;5069787;28;20047;-68
2022/03/19 08:17:28;;;;;;;0.20;0.20;;;;;;;;;;5086427;28;20066;-69
2022/03/19 08:19:58;;;;;;;0.20;0.20;;;;;;;;;;5088091;28;20107;-68
2022/03/19 08:22:24;;;;;;;0.20;0.20;;;;;;;;;;5084534;28;20035;-69
2022/03/19 08:24:50;;;;;;;0.10;0.10;;;;;;;;;;5089142;28;20040;-71
2022/03/19 08:27:17;;;;;;;0.15;0.15;;;;;;;;;;5073827;28;20016;-70
2022/03/19 08:29:43;;;;;;;0.10;0.10;;;;;;;;;;5068233;28;20479;-73
2022/03/19 08:32:10;;;;;;;0.10;0.10;;;;;;;;;;5066696;28;20051;-71
2022/03/19 08:34:36;;;;;;;0.20;0.20;;;;;;;;;;5068456;28;20064;-69
2022/03/19 08:37:02;;;;;;;0.20;0.20;;;;;;;;;;5068436;28;20064;-70
2022/03/19 08:42:11;;;;;;;0.10;0.10;;;;;;;;;;5068464;28;20357;-69
2022/03/19 08:44:36;;;;;;;0.20;0.20;;;;;;;;;;5033016;28;20727;-70
2022/03/19 08:47:02;;;;;;;0.10;0.10;;;;;;;;;;5050030;28;20392;-69
2022/03/19 08:49:28;;;;;;;0.10;0.10;;;;;;;;;;5068908;28;20067;-70
2022/03/19 08:51:53;;;;;;;0.10;0.10;;;;;;;;;;5068061;28;20107;-70
2022/03/19 08:54:19;;;;;;;0.10;0.10;;;;;;;;;;5068279;28;20044;-70
2022/03/19 08:56:46;;;;;;;0.15;0.15;;;;;;;;;;5068512;28;20040;-70
2022/03/19 08:59:12;;;;;;;0.20;0.20;;;;;;;;;;5076762;28;20491;-70
2022/03/19 09:01:38;;;;;;;0.10;0.10;;;;;;;;;;5068542;28;20492;-71
2022/03/19 09:04:04;;;;;;;0.10;0.10;;;;;;;;;;5066556;28;20028;-71
2022/03/19 09:06:30;;;;;;;0.10;0.10;;;;;;;;;;5068193;28;20349;-71
2022/03/19 09:08:55;;;;;;;0.10;0.10;;;;;;;;;;5068930;28;20043;-71
2022/03/19 09:11:22;;;;;;;0.20;0.20;;;;;;;;;;5068270;28;20028;-71
2022/03/19 09:13:48;;;;;;;0.10;0.10;;;;;;;;;;5041374;28;20029;-70
2022/03/19 09:16:14;;;;;;;0.10;0.10;;;;;;;;;;5070040;28;20062;-70
2022/03/19 09:18:39;;;;;;;0.10;0.10;;;;;;;;;;5088167;28;20055;-68
2022/03/19 09:21:05;;;;;;;0.20;0.20;;;;;;;;;;5084917;28;20029;-70
2022/03/19 09:23:30;;;;;;;0.20;0.20;;;;;;;;;;5087737;28;20058;-71
2022/03/19 09:25:56;;;;;;;0.10;0.10;;;;;;;;;;5088223;28;20039;-71
2022/03/19 09:28:21;;;;;;;0.20;0.20;;;;;;;;;;5076162;28;20052;-71
2022/03/19 09:30:47;;;;;;;0.10;0.10;;;;;;;;;;5067569;28;20024;-72
2022/03/19 09:33:12;;;;;;;0.30;0.30;;;;;;;;;;5077343;28;20551;-71
2022/03/19 09:35:38;;;;;;;0.17;0.17;;;;;;;;;;5072052;28;20845;-72
2022/03/19 09:38:04;;;;;;;0.20;0.20;;;;;;;;;;5068103;28;20426;-69
2022/03/19 09:40:29;;;;;;;0.10;0.10;;;;;;;;;;5067423;28;20071;-71
2022/03/19 09:42:57;;;;;;;0.20;0.20;;;;;;;;;;5066501;28;20107;-71
2022/03/19 09:45:23;;;;;;;0.17;0.17;;;;;;;;;;5068679;28;20487;-71
2022/03/19 09:47:49;;;;;;;0.20;0.20;;;;;;;;;;5071731;28;20557;-71
2022/03/19 09:50:15;;;;;;;0.20;0.20;;;;;;;;;;5070652;28;20024;-71
2022/03/19 09:52:41;;;;;;;0.10;0.10;;;;;;;;;;5052114;28;20119;-71
2022/03/19 09:55:08;;;;;;;0.20;0.20;;;;;;;;;;5069920;28;20035;-70
2022/03/19 09:57:34;;;;;;;0.10;0.10;;;;;;;;;;5071124;28;20040;-71
2022/03/19 09:59:59;;;;;;;0.10;0.10;;;;;;;;;;5071711;28;20039;-71
2022/03/19 10:02:25;;;;;;;0.20;0.20;;;;;;;;;;5070998;28;20025;-71
2022/03/19 10:04:51;;;;;;;0.10;0.10;;;;;;;;;;5071328;28;20040;-70
2022/03/19 10:10:06;;;;;;;0.10;0.10;;;;;;;;;;5071814;28;20520;-71
2022/03/19 10:12:33;;;;;;;0.65;0.65;;;;;;;;;;5071313;28;20068;-70
2022/03/19 10:14:59;;;;;;;0.20;0.20;;;;;;;;;;5070986;28;20482;-70
2022/03/19 10:17:26;;;;;;;0.20;0.20;;;;;;;;;;5071110;28;20139;-70
2022/03/19 10:19:52;;;;;;;0.20;0.20;;;;;;;;;;5071096;28;20036;-71
2022/03/19 10:22:25;;;;;;;0.20;0.20;;;;;;;;;;5070333;28;20041;-71
2022/03/19 10:25:01;;;;;;;0.20;0.20;;;;;;;;;;5071297;28;20028;-71
2022/03/19 10:27:30;;;;;;;0.40;0.40;;;;;;;;;;5071038;28;20113;-70
2022/03/19 10:30:00;;;;;;;0.20;0.20;;;;;;;;;;5070863;28;20090;-70
2022/03/19 10:32:28;;;;;;;0.20;0.20;;;;;;;;;;5052858;28;20414;-70
2022/03/19 10:34:54;;;;;;;0.10;0.10;;;;;;;;;;5035474;28;20120;-70
2022/03/19 10:37:33;;;;;;;0.20;0.20;;;;;;;;;;5070619;28;20131;-70
2022/03/19 10:39:58;;;;;;;0.20;0.20;;;;;;;;;;5071279;28;20090;-70
2022/03/19 10:42:24;;;;;;;1.88;1.80;;;;;;;;;;5070513;28;20029;-70
2022/03/19 10:44:49;;;;;;;0.20;0.20;;;;;;;;;;5070635;28;20392;-70
2022/03/19 10:47:20;;;;;;;0.30;0.30;;;;;;;;;;5069799;28;20389;-70
2022/03/19 10:49:46;;;;;;;0.35;0.35;;;;;;;;;;5052612;28;20028;-70
2022/03/19 10:52:14;;;;;;;0.30;0.30;;;;;;;;;;5070233;28;20027;-70
2022/03/19 10:54:40;;;;;;;0.57;0.57;;;;;;;;;;5070418;28;20028;-70
2022/03/19 10:57:06;;;;;;;0.20;0.20;;;;;;;;;;5070292;28;20525;-70
2022/03/19 10:59:31;;;;;;;0.20;0.20;;;;;;;;;;5070025;28;20044;-70
2022/03/19 11:01:58;;;;;;;0.20;0.20;;;;;;;;;;5070345;28;20037;-71
2022/03/19 11:04:24;;;;;;;0.20;0.20;;;;;;;;;;5070492;28;20032;-70
2022/03/19 11:06:51;;;;;;;0.20;0.20;;;;;;;;;;5070335;28;20024;-70
2022/03/19 11:09:18;;;;;;;0.20;0.20;;;;;;;;;;5070205;28;20036;-70
2022/03/19 11:11:56;;;;;;;0.28;0.28;;;;;;;;;;5069699;28;20056;-70
2022/03/19 11:14:23;;;;;;;0.30;0.30;;;;;;;;;;5069755;28;20028;-71
2022/03/19 11:19:43;;;;;;;0.20;0.20;;;;;;;;;;5070313;28;20059;-70
2022/03/19 11:22:09;;;;;;;0.17;0.17;;;;;;;;;;5070078;28;20113;-70
2022/03/19 11:24:41;;;;;;;0.20;0.20;;;;;;;;;;5069594;28;20024;-71
2022/03/19 11:27:08;;;;;;;0.30;0.30;;;;;;;;;;5069758;28;20443;-70
2022/03/19 11:29:34;;;;;;;0.30;0.30;;;;;;;;;;5070020;28;20025;-70
2022/03/19 11:32:01;;;;;;;0.30;0.30;;;;;;;;;;5069882;28;20024;-70
2022/03/19 11:34:41;;;;;;;0.20;0.20;;;;;;;;;;5069566;28;20024;-70
2022/03/19 11:37:06;;;;;;;;;;;;;;;;;;5069386;28;20086;-70
2022/03/19 11:39:31;;;;;;;0.20;0.20;;;;;;;;;;5069423;28;19920;-71
2022/03/19 11:41:57;;;;;;;0.20;0.20;;;;;;;;;;5069806;28;20302;-70
2022/03/19 11:44:24;;;;;;;0.63;0.63;;;;;;;;;;5069568;28;20074;-70
2022/03/19 11:47:03;;;;;;;0.20;0.20;;;;;;;;;;5069725;28;20476;-70
2022/03/19 11:49:48;;;;;;;0.30;0.30;;;;;;;;;;5068991;28;20074;-70
2022/03/19 11:52:18;;;;;;;0.20;0.20;;;;;;;;;;5069123;28;20040;-70
2022/03/19 11:55:05;;;;;;;0.30;0.30;;;;;;;;;;5069652;28;20090;-70
2022/03/19 11:58:02;;;;;;;0.20;0.20;;;;;;;;;;5051568;28;20035;-70
2022/03/19 12:00:34;;;;;;;0.30;0.30;;;;;;;;;;5053587;28;20052;-70
2022/03/19 12:03:05;;;;;;;0.20;0.20;;;;;;;;;;5068545;28;20028;-70
2022/03/19 12:05:31;;;;;;;0.30;0.30;;;;;;;;;;5069687;28;20040;-70
2022/03/19 12:08:03;;;;;;;0.50;0.50;;;;;;;;;;5068470;28;20158;-70
2022/03/19 12:10:36;;;;;;;1.02;0.50;;;;;;;;;;5069154;28;20040;-70
2022/03/19 12:13:02;;;;;;;1.10;1.00;;;;;;;;;;5051988;28;20117;-70
2022/03/19 12:15:30;;;;;;;0.30;0.30;;;;;;;;;;5068155;28;20123;-70
2022/03/19 12:18:14;;;;;;;0.30;0.30;;;;;;;;;;5067719;28;20101;-70
2022/03/19 12:20:43;;;;;;;0.30;0.30;;;;;;;;;;5068844;28;20051;-70
2022/03/19 12:23:10;;;;;;;1.42;0.85;;;;;;;;;;5071212;28;20028;-70
2022/03/19 12:25:39;;;;;;;0.70;0.70;;;;;;;;;;5081039;28;20047;-70
2022/03/19 12:28:04;;;;;;;0.15;0.15;;;;;;;;;;5071346;28;20036;-70
2022/03/19 12:30:30;;;;;;;0.30;0.30;;;;;;;;;;5088843;28;20327;-70
2022/03/19 12:32:56;;;;;;;0.20;0.20;;;;;;;;;;5087456;28;20024;-70
2022/03/19 12:35:26;;;;;;;0.20;0.20;;;;;;;;;;5071354;28;20025;-70
2022/03/19 12:37:53;;;;;;;0.65;0.40;;;;;;;;;;5068724;28;20540;-70
2022/03/19 12:40:22;;;;;;;0.75;0.75;;;;;;;;;;5067824;28;20476;-70
2022/03/19 12:42:48;;;;;;;;;;;;;;;;;;5084580;28;20123;-71
2022/03/19 12:45:14;;;;;;;0.10;0.10;;;;;;;;;;5087176;28;20348;-70
2022/03/19 12:47:39;;;;;;;1.20;1.10;;;;;;;;;;5087098;28;20042;-70
2022/03/19 12:50:05;;;;;;;0.50;0.40;;;;;;;;;;5068691;28;20036;-70
2022/03/19 12:52:33;;;;;;;0.57;0.50;;;;;;;;;;5085563;28;20109;-70
2022/03/19 12:55:00;;;;;;;0.10;0.10;;;;;;;;;;5068250;28;20032;-70
2022/03/19 12:57:25;;;;;;;0.10;0.10;;;;;;;;;;5083177;28;20084;-70
2022/03/19 12:59:51;;;;;;;0.20;0.20;;;;;;;;;;5087702;28;20462;-70
2022/03/19 13:02:17;;;;;;;0.20;0.20;;;;;;;;;;5086737;28;20023;-70
2022/03/19 13:04:43;;;;;;;1.90;1.60;;;;;;;;;;5087191;28;20086;-70
2022/03/19 13:07:12;;;;;;;0.70;0.68;;;;;;;;;;5087613;28;20119;-70
2022/03/19 13:09:41;;;;;;;1.38;1.27;;;;;;;;;;5057458;28;20047;-70
2022/03/19 13:12:08;;;;;;;0.20;0.20;;;;;;;;;;5053479;28;20028;-70
2022/03/19 13:14:34;;;;;;;0.10;0.10;;;;;;;;;;5088588;28;20024;-70
2022/03/19 13:17:00;;;;;;;0.22;0.22;;;;;;;;;;5085533;28;20486;-70
2022/03/19 13:19:27;;;;;;;2.13;2.03;;;;;;;;;;5068167;28;20032;-70
2022/03/19 13:21:55;;;;;;;0.30;0.30;;;;;;;;;;5089573;28;20040;-70
2022/03/19 13:24:21;;;;;;;0.20;0.20;;;;;;;;;;5087752;28;20098;-70
2022/03/19 13:26:47;;;;;;;0.50;0.50;;;;;;;;;;5082220;28;20366;-71
2022/03/19 13:29:14;;;;;;;0.40;0.40;;;;;;;;;;5090311;28;20525;-70
2022/03/19 13:31:42;;;;;;;1.02;0.38;;;;;;;;;;5092024;28;20032;-68
2022/03/19 13:34:07;;;;;;;0.28;0.28;;;;;;;;;;5091777;28;20390;-70
2022/03/19 13:36:34;;;;;;;0.20;0.20;;;;;;;;;;5091777;28;20024;-70
2022/03/19 13:39:00;;;;;;;0.35;0.35;;;;;;;;;;5091874;28;20036;-70
2022/03/19 13:41:26;;;;;;;0.20;0.20;;;;;;;;;;5092092;28;20028;-71
2022/03/19 13:43:51;;;;;;;0.50;0.50;;;;;;;;;;5092233;28;20063;-70
2022/03/19 13:46:20;;;;;;;0.30;0.30;;;;;;;;;;5091706;28;20039;-70
2022/03/19 13:48:47;;;;;;;0.10;0.10;;;;;;;;;;5081683;28;20052;-71
2022/03/19 13:51:14;;;;;;;0.20;0.20;;;;;;;;;;5071271;28;20032;-70
2022/03/19 13:53:41;;;;;;;0.57;0.57;;;;;;;;;;5070899;28;20041;-70
2022/03/19 13:56:06;;;;;;;0.10;0.10;;;;;;;;;;5070174;28;20085;-70
2022/03/19 13:58:32;;;;;;;0.20;0.20;;;;;;;;;;5069977;28;20044;-69
2022/03/19 14:00:57;;;;;;;0.20;0.20;;;;;;;;;;5069896;28;20027;-70
2022/03/19 14:03:24;;;;;;;0.20;0.20;;;;;;;;;;5070306;28;20074;-70
2022/03/19 14:05:51;;;;;;;0.50;0.40;;;;;;;;;;5069695;28;20436;-70
2022/03/19 14:08:19;;;;;;;0.20;0.20;;;;;;;;;;5069778;28;20029;-69
2022/03/19 14:10:46;;;;;;;0.10;0.10;;;;;;;;;;5070996;28;20051;-70
2022/03/19 14:13:15;;;;;;;0.47;0.47;;;;;;;;;;5071240;28;20024;-70
2022/03/19 14:15:45;;;;;;;0.47;0.47;;;;;;;;;;5053285;28;20032;-70
2022/03/19 14:18:21;;;;;;;0.13;0.13;;;;;;;;;;5036356;28;20044;-70
2022/03/19 14:20:46;;;;;;;5.40;0.75;;;;;;;;;;5070947;28;20403;-70
2022/03/19 14:23:12;;;;;;;0.30;0.30;;;;;;;;;;5070942;28;20032;-70
2022/03/19 14:25:37;;;;;;;0.10;0.10;;;;;;;;;;5071473;28;20431;-70
2022/03/19 14:28:07;;;;;;;0.20;0.20;;;;;;;;;;5070837;28;20499;-70
2022/03/19 14:30:34;;;;;;;0.10;0.10;;;;;;;;;;5070715;28;20120;-70
2022/03/19 14:33:00;;;;;;;0.10;0.10;;;;;;;;;;5070674;28;20032;-70
2022/03/19 14:35:45;;;;;;;0.20;0.20;;;;;;;;;;5071018;28;20427;-70
2022/03/19 14:38:11;;;;;;;0.40;0.40;;;;;;;;;;5070423;28;20033;-70
2022/03/19 14:40:38;;;;;;;0.20;0.20;;;;;;;;;;5070769;28;20397;-70
2022/03/19 14:43:04;;;;;;;0.20;0.20;;;;;;;;;;5070618;28;20047;-70
2022/03/19 14:45:29;;;;;;;1.95;0.85;;;;;;;;;;5070809;28;20025;-70
2022/03/19 14:47:57;;;;;;;0.17;0.17;;;;;;;;;;5070491;28;20509;-70
2022/03/19 14:50:24;;;;;;;0.47;0.47;;;;;;;;;;5070290;28;20040;-70
2022/03/19 14:52:50;;;;;;;0.65;0.65;;;;;;;;;;5070588;28;20536;-70
2022/03/19 14:55:15;;;;;;;0.20;0.20;;;;;;;;;;5070623;28;20173;-70
2022/03/19 14:57:41;;;;;;;0.10;0.10;;;;;;;;;;5070367;28;20076;-71